sensor_id;sensor_type;location;lat;lon;timestamp;temperature;humidity
28010;DHT22;15334;49.494;8.410;2023-07-13T00:01:49;20.90;98.50
28010;DHT22;15334;49.494;8.410;2023-07-13T00:04:18;20.90;98.80
28010;DHT22;15334;49.494;8.410;2023-07-13T00:06:47;20.90;98.40
28010;DHT22;15334;49.494;8.410;2023-07-13T00:09:18;20.80;97.90
28010;DHT22;15334;49.494;8.410;2023-07-13T00:11:50;20.80;98.20
28010;DHT22;15334;49.494;8.410;2023-07-13T00:14:19;20.80;98.60
28010;DHT22;15334;49.494;8.410;2023-07-13T00:16:47;20.70;98.50
28010;DHT22;15334;49.494;8.410;2023-07-13T00:19:15;20.70;99.00
28010;DHT22;15334;49.494;8.410;2023-07-13T00:21:44;20.60;99.40
28010;DHT22;15334;49.494;8.410;2023-07-13T00:24:15;20.50;99.40
28010;DHT22;15334;49.494;8.410;2023-07-13T00:26:48;20.50;99.70
28010;DHT22;15334;49.494;8.410;2023-07-13T00:29:16;20.30;99.90
28010;DHT22;15334;49.494;8.410;2023-07-13T00:31:44;20.10;99.90
28010;DHT22;15334;49.494;8.410;2023-07-13T00:34:12;20.00;99.90
28010;DHT22;15334;49.494;8.410;2023-07-13T00:36:40;19.90;99.90
28010;DHT22;15334;49.494;8.410;2023-07-13T00:39:08;19.90;99.90
28010;DHT22;15334;49.494;8.410;2023-07-13T00:41:38;19.80;99.90
28010;DHT22;15334;49.494;8.410;2023-07-13T00:44:09;19.70;99.90
28010;DHT22;15334;49.494;8.410;2023-07-13T00:46:40;19.60;99.90
28010;DHT22;15334;49.494;8.410;2023-07-13T00:49:16;19.50;99.90
28010;DHT22;15334;49.494;8.410;2023-07-13T00:51:49;19.50;99.90
28010;DHT22;15334;49.494;8.410;2023-07-13T00:54:20;19.40;99.90
28010;DHT22;15334;49.494;8.410;2023-07-13T00:56:54;19.40;99.90
28010;DHT22;15334;49.494;8.410;2023-07-13T00:59:23;19.30;99.90
28010;DHT22;15334;49.494;8.410;2023-07-13T01:01:51;19.40;99.90
28010;DHT22;15334;49.494;8.410;2023-07-13T01:04:19;19.30;99.90
28010;DHT22;15334;49.494;8.410;2023-07-13T01:06:47;19.30;99.90
28010;DHT22;15334;49.494;8.410;2023-07-13T01:09:15;19.30;99.90
28010;DHT22;15334;49.494;8.410;2023-07-13T01:11:44;19.20;99.90
28010;DHT22;15334;49.494;8.410;2023-07-13T01:14:14;19.30;99.90
28010;DHT22;15334;49.494;8.410;2023-07-13T01:16:46;19.30;99.90
28010;DHT22;15334;49.494;8.410;2023-07-13T01:19:25;19.30;99.90
28010;DHT22;15334;49.494;8.410;2023-07-13T01:22:05;19.40;99.90
28010;DHT22;15334;49.494;8.410;2023-07-13T01:24:35;19.40;99.90
28010;DHT22;15334;49.494;8.410;2023-07-13T01:27:05;19.40;99.90
28010;DHT22;15334;49.494;8.410;2023-07-13T01:29:35;19.50;99.90
28010;DHT22;15334;49.494;8.410;2023-07-13T01:32:11;19.50;99.90
28010;DHT22;15334;49.494;8.410;2023-07-13T01:34:39;19.50;99.90
28010;DHT22;15334;49.494;8.410;2023-07-13T01:37:11;19.50;99.90
28010;DHT22;15334;49.494;8.410;2023-07-13T01:39:40;19.50;99.90
28010;DHT22;15334;49.494;8.410;2023-07-13T01:42:08;19.40;99.90
28010;DHT22;15334;49.494;8.410;2023-07-13T01:44:36;19.40;99.90
28010;DHT22;15334;49.494;8.410;2023-07-13T01:47:05;19.30;99.90
28010;DHT22;15334;49.494;8.410;2023-07-13T01:49:33;19.30;99.90
28010;DHT22;15334;49.494;8.410;2023-07-13T01:52:01;19.20;99.90
28010;DHT22;15334;49.494;8.410;2023-07-13T01:54:30;19.10;99.90
28010;DHT22;15334;49.494;8.410;2023-07-13T01:57:00;19.10;99.90
28010;DHT22;15334;49.494;8.410;2023-07-13T01:59:28;19.00;99.90
28010;DHT22;15334;49.494;8.410;2023-07-13T02:01:56;19.00;99.90
28010;DHT22;15334;49.494;8.410;2023-07-13T02:04:24;18.90;99.90
28010;DHT22;15334;49.494;8.410;2023-07-13T02:06:52;18.90;99.90
28010;DHT22;15334;49.494;8.410;2023-07-13T02:09:22;18.80;99.90
28010;DHT22;15334;49.494;8.410;2023-07-13T02:11:51;18.80;99.90
28010;DHT22;15334;49.494;8.410;2023-07-13T02:14:19;18.80;99.90
28010;DHT22;15334;49.494;8.410;2023-07-13T02:16:48;18.80;99.90
28010;DHT22;15334;49.494;8.410;2023-07-13T02:19:16;18.90;99.90
28010;DHT22;15334;49.494;8.410;2023-07-13T02:21:44;19.00;99.90
28010;DHT22;15334;49.494;8.410;2023-07-13T02:24:13;19.00;99.90
28010;DHT22;15334;49.494;8.410;2023-07-13T02:26:44;19.00;99.90
28010;DHT22;15334;49.494;8.410;2023-07-13T02:29:14;19.00;99.90
28010;DHT22;15334;49.494;8.410;2023-07-13T02:31:42;19.00;99.90
28010;DHT22;15334;49.494;8.410;2023-07-13T02:34:10;19.10;99.90
28010;DHT22;15334;49.494;8.410;2023-07-13T02:36:37;19.10;99.90
28010;DHT22;15334;49.494;8.410;2023-07-13T02:39:06;19.10;99.90
28010;DHT22;15334;49.494;8.410;2023-07-13T02:41:34;19.10;99.90
28010;DHT22;15334;49.494;8.410;2023-07-13T02:44:02;19.00;99.90
28010;DHT22;15334;49.494;8.410;2023-07-13T02:46:32;19.00;99.90
28010;DHT22;15334;49.494;8.410;2023-07-13T02:49:01;19.00;99.90
28010;DHT22;15334;49.494;8.410;2023-07-13T02:51:29;19.00;99.90
28010;DHT22;15334;49.494;8.410;2023-07-13T02:53:57;19.00;99.90
28010;DHT22;15334;49.494;8.410;2023-07-13T02:56:27;18.90;99.90
28010;DHT22;15334;49.494;8.410;2023-07-13T02:58:55;18.90;99.90
28010;DHT22;15334;49.494;8.410;2023-07-13T03:01:24;18.90;99.90
28010;DHT22;15334;49.494;8.410;2023-07-13T03:03:53;18.80;99.90
28010;DHT22;15334;49.494;8.410;2023-07-13T03:06:22;18.80;99.90
28010;DHT22;15334;49.494;8.410;2023-07-13T03:08:51;18.80;99.90
28010;DHT22;15334;49.494;8.410;2023-07-13T03:11:20;18.80;99.90
28010;DHT22;15334;49.494;8.410;2023-07-13T03:13:49;18.70;99.90
28010;DHT22;15334;49.494;8.410;2023-07-13T03:16:17;18.70;99.90
28010;DHT22;15334;49.494;8.410;2023-07-13T03:18:46;18.70;99.90
28010;DHT22;15334;49.494;8.410;2023-07-13T03:21:16;18.50;99.90
28010;DHT22;15334;49.494;8.410;2023-07-13T03:23:44;18.40;99.90
28010;DHT22;15334;49.494;8.410;2023-07-13T03:26:15;18.30;99.90
28010;DHT22;15334;49.494;8.410;2023-07-13T03:28:43;18.20;99.90
28010;DHT22;15334;49.494;8.410;2023-07-13T03:31:15;18.30;99.90
28010;DHT22;15334;49.494;8.410;2023-07-13T03:33:44;18.30;99.90
28010;DHT22;15334;49.494;8.410;2023-07-13T03:36:16;18.30;99.90
28010;DHT22;15334;49.494;8.410;2023-07-13T03:38:46;18.30;99.90
28010;DHT22;15334;49.494;8.410;2023-07-13T03:41:15;18.30;99.90
28010;DHT22;15334;49.494;8.410;2023-07-13T03:43:43;18.30;99.90
28010;DHT22;15334;49.494;8.410;2023-07-13T03:46:11;18.30;99.90
28010;DHT22;15334;49.494;8.410;2023-07-13T03:48:40;18.20;99.90
28010;DHT22;15334;49.494;8.410;2023-07-13T03:51:10;18.10;99.90
28010;DHT22;15334;49.494;8.410;2023-07-13T03:53:42;18.00;99.90
28010;DHT22;15334;49.494;8.410;2023-07-13T03:56:11;17.80;99.90
28010;DHT22;15334;49.494;8.410;2023-07-13T03:58:42;17.70;99.90
28010;DHT22;15334;49.494;8.410;2023-07-13T04:01:12;17.60;99.90
28010;DHT22;15334;49.494;8.410;2023-07-13T04:03:40;17.50;99.90
28010;DHT22;15334;49.494;8.410;2023-07-13T04:06:19;17.60;99.90
28010;DHT22;15334;49.494;8.410;2023-07-13T04:08:51;17.70;99.90
28010;DHT22;15334;49.494;8.410;2023-07-13T04:11:21;17.80;99.90
28010;DHT22;15334;49.494;8.410;2023-07-13T04:13:49;17.90;99.90
28010;DHT22;15334;49.494;8.410;2023-07-13T04:16:18;18.00;99.90
28010;DHT22;15334;49.494;8.410;2023-07-13T04:18:47;18.10;99.90
28010;DHT22;15334;49.494;8.410;2023-07-13T04:21:16;18.10;99.90
28010;DHT22;15334;49.494;8.410;2023-07-13T04:23:44;18.10;99.90
28010;DHT22;15334;49.494;8.410;2023-07-13T04:26:14;18.00;99.90
28010;DHT22;15334;49.494;8.410;2023-07-13T04:28:42;18.00;99.90
28010;DHT22;15334;49.494;8.410;2023-07-13T04:31:10;18.00;99.90
28010;DHT22;15334;49.494;8.410;2023-07-13T04:33:38;18.10;99.90
28010;DHT22;15334;49.494;8.410;2023-07-13T04:36:06;18.10;99.90
28010;DHT22;15334;49.494;8.410;2023-07-13T04:38:36;18.20;99.90
28010;DHT22;15334;49.494;8.410;2023-07-13T04:41:06;18.40;99.90
28010;DHT22;15334;49.494;8.410;2023-07-13T04:43:36;18.60;99.90
28010;DHT22;15334;49.494;8.410;2023-07-13T04:46:08;18.60;99.90
28010;DHT22;15334;49.494;8.410;2023-07-13T04:48:37;18.70;99.90
28010;DHT22;15334;49.494;8.410;2023-07-13T04:51:06;18.70;99.90
28010;DHT22;15334;49.494;8.410;2023-07-13T04:53:34;18.70;99.90
28010;DHT22;15334;49.494;8.410;2023-07-13T04:56:02;18.60;99.90
28010;DHT22;15334;49.494;8.410;2023-07-13T04:58:31;18.50;99.90
28010;DHT22;15334;49.494;8.410;2023-07-13T05:01:01;18.40;99.90
28010;DHT22;15334;49.494;8.410;2023-07-13T05:03:29;18.30;99.90
28010;DHT22;15334;49.494;8.410;2023-07-13T05:06:00;18.20;99.90
28010;DHT22;15334;49.494;8.410;2023-07-13T05:08:28;18.10;99.90
28010;DHT22;15334;49.494;8.410;2023-07-13T05:10:56;18.10;99.90
28010;DHT22;15334;49.494;8.410;2023-07-13T05:13:26;18.10;99.90
28010;DHT22;15334;49.494;8.410;2023-07-13T05:15:57;18.10;99.90
28010;DHT22;15334;49.494;8.410;2023-07-13T05:18:27;18.10;99.90
28010;DHT22;15334;49.494;8.410;2023-07-13T05:20:58;18.10;99.90
28010;DHT22;15334;49.494;8.410;2023-07-13T05:23:27;18.20;99.90
28010;DHT22;15334;49.494;8.410;2023-07-13T05:25:55;18.30;99.90
28010;DHT22;15334;49.494;8.410;2023-07-13T05:28:23;18.40;99.90
28010;DHT22;15334;49.494;8.410;2023-07-13T05:30:51;18.40;99.90
28010;DHT22;15334;49.494;8.410;2023-07-13T05:33:20;18.50;99.90
28010;DHT22;15334;49.494;8.410;2023-07-13T05:35:50;18.60;99.90
28010;DHT22;15334;49.494;8.410;2023-07-13T05:38:18;18.60;99.90
28010;DHT22;15334;49.494;8.410;2023-07-13T05:40:46;18.70;99.90
28010;DHT22;15334;49.494;8.410;2023-07-13T05:43:14;18.80;99.90
28010;DHT22;15334;49.494;8.410;2023-07-13T05:45:42;18.90;99.90
28010;DHT22;15334;49.494;8.410;2023-07-13T05:48:10;19.00;99.90
28010;DHT22;15334;49.494;8.410;2023-07-13T05:50:38;19.10;99.90
28010;DHT22;15334;49.494;8.410;2023-07-13T05:53:08;19.10;99.90
28010;DHT22;15334;49.494;8.410;2023-07-13T05:55:36;19.20;99.90
28010;DHT22;15334;49.494;8.410;2023-07-13T05:58:08;19.20;99.90
28010;DHT22;15334;49.494;8.410;2023-07-13T06:00:36;19.30;99.90
28010;DHT22;15334;49.494;8.410;2023-07-13T06:03:04;19.40;99.90
28010;DHT22;15334;49.494;8.410;2023-07-13T06:05:33;19.30;99.90
28010;DHT22;15334;49.494;8.410;2023-07-13T06:08:03;19.40;99.90
28010;DHT22;15334;49.494;8.410;2023-07-13T06:10:33;19.30;99.90
28010;DHT22;15334;49.494;8.410;2023-07-13T06:13:01;19.30;99.90
28010;DHT22;15334;49.494;8.410;2023-07-13T06:15:29;19.40;99.90
28010;DHT22;15334;49.494;8.410;2023-07-13T06:17:57;19.50;99.90
28010;DHT22;15334;49.494;8.410;2023-07-13T06:20:25;19.60;99.90
28010;DHT22;15334;49.494;8.410;2023-07-13T06:22:54;19.80;99.90
28010;DHT22;15334;49.494;8.410;2023-07-13T06:25:22;19.90;99.90
28010;DHT22;15334;49.494;8.410;2023-07-13T06:27:51;20.10;99.90
28010;DHT22;15334;49.494;8.410;2023-07-13T06:30:19;20.10;99.90
28010;DHT22;15334;49.494;8.410;2023-07-13T06:32:47;20.20;99.90
28010;DHT22;15334;49.494;8.410;2023-07-13T06:35:15;20.20;99.90
28010;DHT22;15334;49.494;8.410;2023-07-13T06:37:44;20.20;99.90
28010;DHT22;15334;49.494;8.410;2023-07-13T06:40:12;20.30;99.90
28010;DHT22;15334;49.494;8.410;2023-07-13T06:42:40;20.30;99.90
28010;DHT22;15334;49.494;8.410;2023-07-13T06:45:09;20.30;99.90
28010;DHT22;15334;49.494;8.410;2023-07-13T06:47:37;20.50;99.90
28010;DHT22;15334;49.494;8.410;2023-07-13T06:50:06;20.50;99.90
28010;DHT22;15334;49.494;8.410;2023-07-13T06:52:34;20.70;99.90
28010;DHT22;15334;49.494;8.410;2023-07-13T06:55:02;20.70;99.90
28010;DHT22;15334;49.494;8.410;2023-07-13T06:57:30;20.80;99.90
28010;DHT22;15334;49.494;8.410;2023-07-13T06:59:58;20.80;99.90
28010;DHT22;15334;49.494;8.410;2023-07-13T07:02:27;20.90;99.90
28010;DHT22;15334;49.494;8.410;2023-07-13T07:04:55;20.90;99.90
28010;DHT22;15334;49.494;8.410;2023-07-13T07:07:24;21.00;99.90
28010;DHT22;15334;49.494;8.410;2023-07-13T07:09:51;21.10;99.90
28010;DHT22;15334;49.494;8.410;2023-07-13T07:12:19;21.20;99.90
28010;DHT22;15334;49.494;8.410;2023-07-13T07:14:48;21.20;99.90
28010;DHT22;15334;49.494;8.410;2023-07-13T07:17:16;21.30;99.90
28010;DHT22;15334;49.494;8.410;2023-07-13T07:19:45;21.30;99.90
28010;DHT22;15334;49.494;8.410;2023-07-13T07:22:13;21.40;99.90
28010;DHT22;15334;49.494;8.410;2023-07-13T07:24:41;21.50;99.90
28010;DHT22;15334;49.494;8.410;2023-07-13T07:27:09;21.50;99.90
28010;DHT22;15334;49.494;8.410;2023-07-13T07:29:40;21.50;99.90
28010;DHT22;15334;49.494;8.410;2023-07-13T07:32:14;21.50;99.90
28010;DHT22;15334;49.494;8.410;2023-07-13T07:35:04;21.50;99.80
28010;DHT22;15334;49.494;8.410;2023-07-13T07:37:32;21.60;99.80
28010;DHT22;15334;49.494;8.410;2023-07-13T07:40:04;21.70;99.90
28010;DHT22;15334;49.494;8.410;2023-07-13T07:42:35;21.80;99.80
28010;DHT22;15334;49.494;8.410;2023-07-13T07:45:03;21.90;99.90
28010;DHT22;15334;49.494;8.410;2023-07-13T07:47:31;22.00;98.70
28010;DHT22;15334;49.494;8.410;2023-07-13T07:49:59;22.00;98.80
28010;DHT22;15334;49.494;8.410;2023-07-13T07:52:29;22.00;98.30
28010;DHT22;15334;49.494;8.410;2023-07-13T07:54:56;22.00;99.00
28010;DHT22;15334;49.494;8.410;2023-07-13T07:57:45;22.10;98.10
28010;DHT22;15334;49.494;8.410;2023-07-13T08:00:16;22.10;98.20
28010;DHT22;15334;49.494;8.410;2023-07-13T08:02:47;22.00;97.70
28010;DHT22;15334;49.494;8.410;2023-07-13T08:05:18;22.10;98.80
28010;DHT22;15334;49.494;8.410;2023-07-13T08:08:06;22.20;99.90
28010;DHT22;15334;49.494;8.410;2023-07-13T08:10:35;22.30;99.90
28010;DHT22;15334;49.494;8.410;2023-07-13T08:13:03;22.50;99.10
28010;DHT22;15334;49.494;8.410;2023-07-13T08:15:34;22.70;99.90
28010;DHT22;15334;49.494;8.410;2023-07-13T08:18:02;22.80;98.60
28010;DHT22;15334;49.494;8.410;2023-07-13T08:20:30;22.80;98.30
28010;DHT22;15334;49.494;8.410;2023-07-13T08:22:58;22.80;97.80
28010;DHT22;15334;49.494;8.410;2023-07-13T08:25:27;22.80;97.80
28010;DHT22;15334;49.494;8.410;2023-07-13T08:27:55;22.80;98.30
28010;DHT22;15334;49.494;8.410;2023-07-13T08:30:23;22.90;98.20
28010;DHT22;15334;49.494;8.410;2023-07-13T08:32:52;22.90;96.90
28010;DHT22;15334;49.494;8.410;2023-07-13T08:35:20;23.10;96.90
28010;DHT22;15334;49.494;8.410;2023-07-13T08:37:48;23.20;96.60
28010;DHT22;15334;49.494;8.410;2023-07-13T08:40:17;23.30;96.80
28010;DHT22;15334;49.494;8.410;2023-07-13T08:42:54;23.20;98.90
28010;DHT22;15334;49.494;8.410;2023-07-13T08:45:24;23.30;96.80
28010;DHT22;15334;49.494;8.410;2023-07-13T08:48:01;23.30;96.20
28010;DHT22;15334;49.494;8.410;2023-07-13T08:50:33;23.30;97.30
28010;DHT22;15334;49.494;8.410;2023-07-13T08:53:24;23.50;97.00
28010;DHT22;15334;49.494;8.410;2023-07-13T08:55:58;23.60;95.30
28010;DHT22;15334;49.494;8.410;2023-07-13T08:58:29;23.60;95.90
28010;DHT22;15334;49.494;8.410;2023-07-13T09:01:04;23.60;96.40
28010;DHT22;15334;49.494;8.410;2023-07-13T09:03:40;23.70;95.50
28010;DHT22;15334;49.494;8.410;2023-07-13T09:06:12;23.80;94.00
28010;DHT22;15334;49.494;8.410;2023-07-13T09:08:48;23.90;94.60
28010;DHT22;15334;49.494;8.410;2023-07-13T09:11:26;24.00;94.90
28010;DHT22;15334;49.494;8.410;2023-07-13T09:14:04;24.00;96.10
28010;DHT22;15334;49.494;8.410;2023-07-13T09:16:34;24.00;94.30
28010;DHT22;15334;49.494;8.410;2023-07-13T09:19:07;24.00;94.10
28010;DHT22;15334;49.494;8.410;2023-07-13T09:21:41;24.20;93.90
28010;DHT22;15334;49.494;8.410;2023-07-13T09:24:28;24.20;94.70
28010;DHT22;15334;49.494;8.410;2023-07-13T09:26:57;24.40;94.30
28010;DHT22;15334;49.494;8.410;2023-07-13T09:29:31;24.60;93.90
28010;DHT22;15334;49.494;8.410;2023-07-13T09:32:04;24.70;92.50
28010;DHT22;15334;49.494;8.410;2023-07-13T09:34:34;24.70;92.20
28010;DHT22;15334;49.494;8.410;2023-07-13T09:37:02;24.80;92.70
28010;DHT22;15334;49.494;8.410;2023-07-13T09:39:34;24.80;91.50
28010;DHT22;15334;49.494;8.410;2023-07-13T09:42:07;24.70;91.50
28010;DHT22;15334;49.494;8.410;2023-07-13T09:44:54;24.90;92.00
28010;DHT22;15334;49.494;8.410;2023-07-13T09:47:23;25.00;93.50
28010;DHT22;15334;49.494;8.410;2023-07-13T09:49:55;25.00;93.40
28010;DHT22;15334;49.494;8.410;2023-07-13T09:52:40;25.10;92.40
28010;DHT22;15334;49.494;8.410;2023-07-13T09:55:24;25.10;91.00
28010;DHT22;15334;49.494;8.410;2023-07-13T09:57:53;24.80;91.00
28010;DHT22;15334;49.494;8.410;2023-07-13T10:00:24;24.80;92.10
28010;DHT22;15334;49.494;8.410;2023-07-13T10:03:00;24.90;90.90
28010;DHT22;15334;49.494;8.410;2023-07-13T10:05:41;24.90;91.80
28010;DHT22;15334;49.494;8.410;2023-07-13T10:08:21;25.00;91.60
28010;DHT22;15334;49.494;8.410;2023-07-13T10:10:54;24.90;90.90
28010;DHT22;15334;49.494;8.410;2023-07-13T10:13:36;25.00;92.80
28010;DHT22;15334;49.494;8.410;2023-07-13T10:16:07;25.00;92.40
28010;DHT22;15334;49.494;8.410;2023-07-13T10:18:41;25.00;93.50
28010;DHT22;15334;49.494;8.410;2023-07-13T10:21:14;24.90;91.10
28010;DHT22;15334;49.494;8.410;2023-07-13T10:23:48;24.90;91.40
28010;DHT22;15334;49.494;8.410;2023-07-13T10:26:22;24.90;91.20
28010;DHT22;15334;49.494;8.410;2023-07-13T10:28:53;25.00;91.00
28010;DHT22;15334;49.494;8.410;2023-07-13T10:31:24;25.10;91.20
28010;DHT22;15334;49.494;8.410;2023-07-13T10:33:53;25.30;90.30
28010;DHT22;15334;49.494;8.410;2023-07-13T10:36:30;25.30;89.40
28010;DHT22;15334;49.494;8.410;2023-07-13T10:39:01;25.40;89.60
28010;DHT22;15334;49.494;8.410;2023-07-13T10:41:37;25.50;89.40
28010;DHT22;15334;49.494;8.410;2023-07-13T10:44:15;25.30;89.30
28010;DHT22;15334;49.494;8.410;2023-07-13T10:46:47;25.00;88.60
28010;DHT22;15334;49.494;8.410;2023-07-13T10:49:17;25.00;88.50
28010;DHT22;15334;49.494;8.410;2023-07-13T10:51:45;25.00;90.70
28010;DHT22;15334;49.494;8.410;2023-07-13T10:54:19;25.10;90.10
28010;DHT22;15334;49.494;8.410;2023-07-13T10:56:51;25.20;89.30
28010;DHT22;15334;49.494;8.410;2023-07-13T10:59:24;25.00;88.70
28010;DHT22;15334;49.494;8.410;2023-07-13T11:01:58;25.00;89.50
28010;DHT22;15334;49.494;8.410;2023-07-13T11:04:27;25.10;89.80
28010;DHT22;15334;49.494;8.410;2023-07-13T11:07:00;25.10;88.00
28010;DHT22;15334;49.494;8.410;2023-07-13T11:09:40;25.00;87.60
28010;DHT22;15334;49.494;8.410;2023-07-13T11:15:28;25.10;88.50
28010;DHT22;15334;49.494;8.410;2023-07-13T11:17:59;25.20;88.30
28010;DHT22;15334;49.494;8.410;2023-07-13T11:20:34;25.30;85.60
28010;DHT22;15334;49.494;8.410;2023-07-13T11:23:16;25.40;85.60
28010;DHT22;15334;49.494;8.410;2023-07-13T11:25:47;25.40;84.90
28010;DHT22;15334;49.494;8.410;2023-07-13T11:28:21;25.30;86.20
28010;DHT22;15334;49.494;8.410;2023-07-13T11:31:02;25.40;89.70
28010;DHT22;15334;49.494;8.410;2023-07-13T11:33:51;25.50;85.60
28010;DHT22;15334;49.494;8.410;2023-07-13T11:36:23;25.50;86.00
28010;DHT22;15334;49.494;8.410;2023-07-13T11:39:00;25.60;88.30
28010;DHT22;15334;49.494;8.410;2023-07-13T11:41:31;25.80;90.10
28010;DHT22;15334;49.494;8.410;2023-07-13T11:44:12;25.90;85.70
28010;DHT22;15334;49.494;8.410;2023-07-13T11:46:45;26.00;87.80
28010;DHT22;15334;49.494;8.410;2023-07-13T11:49:21;26.20;85.30
28010;DHT22;15334;49.494;8.410;2023-07-13T11:51:51;26.30;82.90
28010;DHT22;15334;49.494;8.410;2023-07-13T11:54:27;26.40;83.30
28010;DHT22;15334;49.494;8.410;2023-07-13T11:56:59;26.70;81.60
28010;DHT22;15334;49.494;8.410;2023-07-13T11:59:30;26.40;82.20
28010;DHT22;15334;49.494;8.410;2023-07-13T12:01:59;26.30;79.20
28010;DHT22;15334;49.494;8.410;2023-07-13T12:04:32;26.10;81.60
28010;DHT22;15334;49.494;8.410;2023-07-13T12:07:05;26.00;81.90
28010;DHT22;15334;49.494;8.410;2023-07-13T12:09:35;26.00;85.30
28010;DHT22;15334;49.494;8.410;2023-07-13T12:12:11;26.20;84.60
28010;DHT22;15334;49.494;8.410;2023-07-13T12:14:39;26.20;84.60
28010;DHT22;15334;49.494;8.410;2023-07-13T12:17:18;26.00;84.50
28010;DHT22;15334;49.494;8.410;2023-07-13T12:19:49;25.90;86.10
28010;DHT22;15334;49.494;8.410;2023-07-13T12:22:19;26.00;87.50
28010;DHT22;15334;49.494;8.410;2023-07-13T12:24:47;26.10;86.30
28010;DHT22;15334;49.494;8.410;2023-07-13T12:27:20;26.20;86.60
28010;DHT22;15334;49.494;8.410;2023-07-13T12:29:51;26.20;83.30
28010;DHT22;15334;49.494;8.410;2023-07-13T12:32:20;26.30;82.10
28010;DHT22;15334;49.494;8.410;2023-07-13T12:34:55;26.30;82.90
28010;DHT22;15334;49.494;8.410;2023-07-13T12:37:24;26.40;83.80
28010;DHT22;15334;49.494;8.410;2023-07-13T12:39:52;26.50;81.80
28010;DHT22;15334;49.494;8.410;2023-07-13T12:42:23;26.40;80.90
28010;DHT22;15334;49.494;8.410;2023-07-13T12:44:57;26.50;80.50
28010;DHT22;15334;49.494;8.410;2023-07-13T12:47:27;26.70;79.40
28010;DHT22;15334;49.494;8.410;2023-07-13T12:49:58;27.10;80.00
28010;DHT22;15334;49.494;8.410;2023-07-13T12:52:30;27.40;79.00
28010;DHT22;15334;49.494;8.410;2023-07-13T12:55:04;27.30;79.10
28010;DHT22;15334;49.494;8.410;2023-07-13T12:57:39;27.00;81.40
28010;DHT22;15334;49.494;8.410;2023-07-13T13:00:22;26.80;82.90
28010;DHT22;15334;49.494;8.410;2023-07-13T13:02:52;26.80;81.50
28010;DHT22;15334;49.494;8.410;2023-07-13T13:05:35;26.70;82.50
28010;DHT22;15334;49.494;8.410;2023-07-13T13:08:04;26.90;81.90
28010;DHT22;15334;49.494;8.410;2023-07-13T13:10:32;27.10;82.20
28010;DHT22;15334;49.494;8.410;2023-07-13T13:13:02;27.40;81.40
28010;DHT22;15334;49.494;8.410;2023-07-13T13:15:31;27.40;83.30
28010;DHT22;15334;49.494;8.410;2023-07-13T13:17:59;27.20;80.60
28010;DHT22;15334;49.494;8.410;2023-07-13T13:20:27;26.90;82.40
28010;DHT22;15334;49.494;8.410;2023-07-13T13:22:56;26.80;83.30
28010;DHT22;15334;49.494;8.410;2023-07-13T13:25:25;26.50;82.10
28010;DHT22;15334;49.494;8.410;2023-07-13T13:27:53;26.50;83.20
28010;DHT22;15334;49.494;8.410;2023-07-13T13:30:21;26.50;81.10
28010;DHT22;15334;49.494;8.410;2023-07-13T13:32:49;26.40;81.70
28010;DHT22;15334;49.494;8.410;2023-07-13T13:35:19;26.40;81.40
28010;DHT22;15334;49.494;8.410;2023-07-13T13:37:48;26.40;82.00
28010;DHT22;15334;49.494;8.410;2023-07-13T13:40:20;26.20;81.60
28010;DHT22;15334;49.494;8.410;2023-07-13T13:42:49;26.10;83.10
28010;DHT22;15334;49.494;8.410;2023-07-13T13:45:18;26.00;83.40
28010;DHT22;15334;49.494;8.410;2023-07-13T13:47:47;25.90;84.50
28010;DHT22;15334;49.494;8.410;2023-07-13T13:50:20;25.90;83.60
28010;DHT22;15334;49.494;8.410;2023-07-13T13:52:49;25.90;84.90
28010;DHT22;15334;49.494;8.410;2023-07-13T13:55:20;25.80;84.70
28010;DHT22;15334;49.494;8.410;2023-07-13T13:57:48;25.70;87.00
28010;DHT22;15334;49.494;8.410;2023-07-13T14:00:17;25.80;87.30
28010;DHT22;15334;49.494;8.410;2023-07-13T14:02:47;25.90;84.90
28010;DHT22;15334;49.494;8.410;2023-07-13T14:05:20;25.80;84.30
28010;DHT22;15334;49.494;8.410;2023-07-13T14:07:49;25.90;87.20
28010;DHT22;15334;49.494;8.410;2023-07-13T14:10:19;26.00;85.30
28010;DHT22;15334;49.494;8.410;2023-07-13T14:12:51;26.00;86.50
28010;DHT22;15334;49.494;8.410;2023-07-13T14:15:22;26.10;84.40
28010;DHT22;15334;49.494;8.410;2023-07-13T14:17:50;26.20;84.90
28010;DHT22;15334;49.494;8.410;2023-07-13T14:20:27;26.20;82.80
28010;DHT22;15334;49.494;8.410;2023-07-13T14:23:02;26.00;83.70
28010;DHT22;15334;49.494;8.410;2023-07-13T14:25:32;25.90;83.30
28010;DHT22;15334;49.494;8.410;2023-07-13T14:28:00;26.00;84.30
28010;DHT22;15334;49.494;8.410;2023-07-13T14:30:34;26.10;84.70
28010;DHT22;15334;49.494;8.410;2023-07-13T14:33:08;26.10;86.40
28010;DHT22;15334;49.494;8.410;2023-07-13T14:35:36;26.20;85.70
28010;DHT22;15334;49.494;8.410;2023-07-13T14:38:04;26.10;85.30
28010;DHT22;15334;49.494;8.410;2023-07-13T14:40:34;26.00;83.10
28010;DHT22;15334;49.494;8.410;2023-07-13T14:43:02;25.90;82.40
28010;DHT22;15334;49.494;8.410;2023-07-13T14:45:31;25.80;82.80
28010;DHT22;15334;49.494;8.410;2023-07-13T14:47:59;25.80;81.80
28010;DHT22;15334;49.494;8.410;2023-07-13T14:50:31;25.90;82.10
28010;DHT22;15334;49.494;8.410;2023-07-13T14:52:59;26.00;81.50
28010;DHT22;15334;49.494;8.410;2023-07-13T14:55:27;26.00;81.50
28010;DHT22;15334;49.494;8.410;2023-07-13T14:57:56;26.00;80.50
28010;DHT22;15334;49.494;8.410;2023-07-13T15:00:25;26.00;81.10
28010;DHT22;15334;49.494;8.410;2023-07-13T15:02:56;26.00;81.10
28010;DHT22;15334;49.494;8.410;2023-07-13T15:05:27;26.10;83.10
28010;DHT22;15334;49.494;8.410;2023-07-13T15:07:58;26.30;82.10
28010;DHT22;15334;49.494;8.410;2023-07-13T15:10:28;26.20;81.10
28010;DHT22;15334;49.494;8.410;2023-07-13T15:13:00;26.20;82.20
28010;DHT22;15334;49.494;8.410;2023-07-13T15:15:40;26.20;81.40
28010;DHT22;15334;49.494;8.410;2023-07-13T15:18:09;26.20;81.10
28010;DHT22;15334;49.494;8.410;2023-07-13T15:20:39;26.00;80.50
28010;DHT22;15334;49.494;8.410;2023-07-13T15:23:09;26.00;80.90
28010;DHT22;15334;49.494;8.410;2023-07-13T15:25:38;26.00;81.60
28010;DHT22;15334;49.494;8.410;2023-07-13T15:28:07;25.90;81.30
28010;DHT22;15334;49.494;8.410;2023-07-13T15:30:39;25.80;80.40
28010;DHT22;15334;49.494;8.410;2023-07-13T15:33:11;25.70;81.20
28010;DHT22;15334;49.494;8.410;2023-07-13T15:35:43;25.60;82.60
28010;DHT22;15334;49.494;8.410;2023-07-13T15:38:16;25.80;82.60
28010;DHT22;15334;49.494;8.410;2023-07-13T15:40:44;25.80;81.60
28010;DHT22;15334;49.494;8.410;2023-07-13T15:43:15;25.80;82.70
28010;DHT22;15334;49.494;8.410;2023-07-13T15:45:43;25.90;82.30
28010;DHT22;15334;49.494;8.410;2023-07-13T15:48:15;26.00;83.30
28010;DHT22;15334;49.494;8.410;2023-07-13T15:50:46;26.00;81.70
28010;DHT22;15334;49.494;8.410;2023-07-13T15:53:19;26.00;81.30
28010;DHT22;15334;49.494;8.410;2023-07-13T15:55:47;26.10;79.90